createdAt,value
2019-03-01T00:01:43.539Z,6.17
2019-03-01T00:04:27.672Z,6.36
2019-03-01T00:07:37.947Z,6.46
2019-03-01T00:10:48.518Z,6.37
2019-03-01T00:14:07.490Z,6.28
2019-03-01T00:17:00.554Z,6.35
2019-03-01T00:20:29.136Z,6.46
2019-03-01T00:23:18.614Z,6.70
2019-03-01T00:26:24.847Z,6.76
2019-03-01T00:29:21.278Z,6.69
2019-03-01T00:32:24.735Z,6.92
2019-03-01T00:35:11.239Z,6.71
2019-03-01T00:38:23.539Z,6.37
2019-03-01T00:41:21.202Z,6.14
2019-03-01T00:44:39.361Z,5.89
2019-03-01T00:47:10.713Z,5.88
2019-03-01T00:49:40.795Z,5.96
2019-03-01T00:52:11.242Z,5.96
2019-03-01T00:54:41.126Z,6.05
2019-03-01T00:57:10.877Z,6.13
2019-03-01T00:59:40.807Z,6.05
2019-03-01T01:02:10.786Z,6.11
2019-03-01T01:04:40.832Z,6.15
2019-03-01T01:07:10.660Z,6.30
2019-03-01T01:09:40.521Z,6.30
2019-03-01T01:12:10.731Z,6.38
2019-03-01T01:14:40.371Z,6.46
2019-03-01T01:17:10.139Z,6.56
2019-03-01T01:19:40.041Z,6.84
2019-03-01T01:22:10.052Z,6.91
2019-03-01T01:24:39.944Z,6.85
2019-03-01T01:27:09.658Z,6.74
2019-03-01T01:29:39.488Z,6.69
2019-03-01T01:32:10.642Z,6.93
2019-03-01T01:34:40.524Z,6.99
2019-03-01T01:37:10.342Z,7.17
2019-03-01T01:39:40.361Z,7.45
2019-03-01T01:42:10.288Z,7.67
2019-03-01T01:44:40.111Z,7.74
2019-03-01T01:47:09.961Z,7.73
2019-03-01T01:49:39.833Z,7.55
2019-03-01T01:52:09.746Z,7.38
2019-03-01T01:54:39.846Z,7.45
2019-03-01T01:57:09.592Z,7.56
2019-03-01T01:59:39.507Z,7.53
2019-03-01T02:02:09.470Z,7.54
2019-03-01T02:04:39.454Z,7.57
2019-03-01T02:07:09.370Z,7.43
2019-03-01T02:09:39.596Z,7.36
2019-03-01T02:12:09.428Z,7.28
2019-03-01T02:14:39.302Z,7.00
2019-03-01T02:17:09.208Z,7.08
2019-03-01T02:19:39.070Z,7.30
2019-03-01T02:22:08.864Z,7.00
2019-03-01T02:24:38.677Z,6.96
2019-03-01T02:27:28.702Z,7.08
2019-03-01T02:29:59.276Z,7.20
2019-03-01T02:32:46.399Z,7.29
2019-03-01T02:35:17.890Z,7.19
2019-03-01T02:37:47.698Z,7.22
2019-03-01T02:40:18.079Z,7.22
2019-03-01T02:42:47.942Z,7.17
2019-03-01T02:45:19.281Z,6.87
2019-03-01T02:47:49.263Z,6.59
2019-03-01T02:50:19.731Z,6.73
2019-03-01T02:52:49.971Z,7.03
2019-03-01T02:55:20.678Z,7.10
2019-03-01T02:57:50.710Z,7.06
2019-03-01T03:00:22.474Z,7.02
2019-03-01T03:02:52.469Z,6.94
2019-03-01T03:05:22.401Z,6.76
2019-03-01T03:08:07.076Z,6.67
2019-03-01T03:10:36.957Z,6.53
2019-03-01T03:13:09.062Z,6.51
2019-03-01T03:15:47.062Z,6.40
2019-03-01T03:18:17.194Z,6.48
2019-03-01T03:20:46.978Z,6.38
2019-03-01T03:23:16.886Z,6.32
2019-03-01T03:25:46.617Z,6.41
2019-03-01T03:28:16.439Z,6.41
2019-03-01T03:30:46.395Z,6.58
2019-03-01T03:33:16.153Z,6.69
2019-03-01T03:35:45.961Z,6.63
2019-03-01T03:38:15.837Z,6.53
2019-03-01T03:40:45.680Z,6.71
2019-03-01T03:43:15.589Z,6.57
2019-03-01T03:45:45.330Z,6.52
2019-03-01T03:48:15.241Z,6.58
2019-03-01T03:50:45.105Z,6.55
2019-03-01T03:53:14.972Z,6.56
2019-03-01T03:55:44.798Z,6.66
2019-03-01T03:58:15.288Z,6.82
2019-03-01T04:00:45.348Z,6.93
2019-03-01T04:03:15.379Z,6.97
2019-03-01T04:05:45.161Z,7.10
2019-03-01T04:08:15.093Z,7.49
2019-03-01T04:10:44.941Z,7.58
2019-03-01T04:13:16.819Z,7.53
2019-03-01T04:15:46.465Z,7.68
2019-03-01T04:18:16.353Z,7.70
2019-03-01T04:20:45.991Z,7.71
2019-03-01T04:23:15.822Z,7.74
2019-03-01T04:25:45.677Z,7.56
2019-03-01T04:28:15.461Z,7.49
2019-03-01T04:30:45.476Z,7.45
2019-03-01T04:33:15.374Z,7.43
2019-03-01T04:35:45.317Z,7.64
2019-03-01T04:38:16.382Z,7.54
2019-03-01T04:40:46.250Z,7.57
2019-03-01T04:43:16.070Z,7.56
2019-03-01T04:45:45.995Z,7.67
2019-03-01T04:48:15.939Z,7.66
2019-03-01T04:50:45.710Z,7.64
2019-03-01T04:53:15.475Z,7.50
2019-03-01T04:55:45.424Z,7.63
2019-03-01T04:58:15.274Z,7.67
2019-03-01T05:00:46.452Z,7.64
2019-03-01T05:03:16.263Z,7.64
2019-03-01T05:05:45.929Z,7.70
2019-03-01T05:08:15.643Z,7.77
2019-03-01T05:10:45.530Z,7.88
2019-03-01T05:13:15.598Z,7.80
2019-03-01T05:15:45.476Z,7.81
2019-03-01T05:18:15.340Z,7.83
2019-03-01T05:20:45.348Z,7.81
2019-03-01T05:23:15.199Z,7.77
2019-03-01T05:25:44.963Z,7.54
2019-03-01T05:28:14.999Z,7.14
2019-03-01T05:30:44.827Z,7.21
2019-03-01T05:33:14.705Z,7.13
2019-03-01T05:35:44.571Z,7.13
2019-03-01T05:38:21.507Z,7.16
2019-03-01T05:40:45.591Z,7.37
2019-03-01T05:43:15.437Z,7.46
2019-03-01T05:45:45.335Z,7.53
2019-03-01T05:48:15.126Z,7.46
2019-03-01T05:50:45.054Z,7.49
2019-03-01T05:53:14.923Z,7.57
2019-03-01T05:55:44.671Z,7.70
2019-03-01T05:58:49.977Z,7.92
2019-03-01T06:01:32.458Z,7.92
2019-03-01T06:04:21.178Z,7.90
2019-03-01T06:07:38.336Z,7.93
2019-03-01T06:10:57.695Z,7.95
2019-03-01T06:14:26.502Z,7.97
2019-03-01T06:17:41.636Z,7.99
2019-03-01T06:20:50.505Z,8.13
2019-03-01T06:24:13.019Z,8.27
2019-03-01T06:27:08.383Z,8.37
2019-03-01T06:30:08.885Z,8.52
2019-03-01T06:33:28.025Z,8.71
2019-03-01T06:36:22.674Z,8.73
2019-03-01T06:39:46.641Z,8.92
2019-03-01T06:42:36.041Z,8.91
2019-03-01T06:45:31.773Z,8.86
2019-03-01T06:48:01.643Z,8.87
2019-03-01T06:50:48.455Z,8.95
2019-03-01T06:53:18.215Z,8.99
2019-03-01T06:55:50.655Z,8.99
2019-03-01T06:58:45.105Z,9.02
2019-03-01T07:01:24.374Z,9.17
2019-03-01T07:04:07.361Z,9.35
2019-03-01T07:06:37.248Z,9.49
2019-03-01T07:09:08.186Z,9.75
2019-03-01T07:11:38.070Z,9.95
2019-03-01T07:14:08.131Z,10.11
2019-03-01T07:16:38.116Z,10.23
2019-03-01T07:19:08.229Z,10.44
2019-03-01T07:21:38.186Z,10.58
2019-03-01T07:24:08.416Z,10.80
2019-03-01T07:26:38.475Z,10.89
2019-03-01T07:29:08.316Z,11.11
2019-03-01T07:31:38.047Z,11.26
2019-03-01T07:34:07.897Z,11.45
2019-03-01T07:36:37.760Z,11.49
2019-03-01T07:39:09.940Z,11.56
2019-03-01T07:41:39.807Z,11.63
2019-03-01T07:44:09.558Z,11.78
2019-03-01T07:46:39.370Z,11.90
2019-03-01T07:49:09.214Z,12.06
2019-03-01T07:51:40.372Z,12.24
2019-03-01T07:54:13.362Z,12.40
2019-03-01T07:56:41.708Z,12.50
2019-03-01T07:59:11.569Z,12.61
2019-03-01T08:01:41.446Z,12.80
2019-03-01T08:04:11.242Z,12.90
2019-03-01T08:06:41.192Z,13.05
2019-03-01T08:09:14.482Z,13.44
2019-03-01T08:11:44.896Z,13.73
2019-03-01T08:14:14.852Z,13.88
2019-03-01T08:16:44.614Z,14.11
2019-03-01T08:19:15.683Z,14.27
2019-03-01T08:21:49.709Z,14.40
2019-03-01T08:24:17.748Z,14.47
2019-03-01T08:26:47.665Z,14.66
2019-03-01T08:29:18.815Z,14.67
2019-03-01T08:31:48.823Z,14.92
2019-03-01T08:34:18.669Z,14.87
2019-03-01T08:36:48.506Z,15.30
2019-03-01T08:39:18.282Z,15.29
2019-03-01T08:41:48.190Z,15.27
2019-03-01T08:44:23.007Z,15.45
2019-03-01T08:46:50.898Z,15.56
2019-03-01T08:49:20.721Z,15.49
2019-03-01T08:51:50.477Z,15.48
2019-03-01T08:54:22.858Z,15.54
2019-03-01T08:56:52.324Z,15.82
2019-03-01T08:59:22.160Z,15.80
2019-03-01T09:01:51.918Z,15.97
2019-03-01T09:04:21.754Z,15.81
2019-03-01T09:06:51.730Z,15.54
2019-03-01T09:09:21.976Z,15.63
2019-03-01T09:11:51.896Z,15.62
2019-03-01T09:14:22.818Z,15.74
2019-03-01T09:16:53.362Z,15.74
2019-03-01T09:19:25.228Z,15.93
2019-03-01T09:21:56.101Z,16.05
2019-03-01T09:24:29.256Z,16.25
2019-03-01T09:26:57.553Z,16.33
2019-03-01T09:29:27.605Z,16.06
2019-03-01T09:31:58.543Z,16.30
2019-03-01T09:34:31.744Z,16.54
2019-03-01T09:37:00.156Z,16.64
2019-03-01T09:39:29.978Z,16.49
2019-03-01T09:42:03.253Z,16.39
2019-03-01T09:44:34.657Z,16.48
2019-03-01T09:47:02.810Z,16.39
2019-03-01T09:49:32.773Z,16.54
2019-03-01T09:52:02.645Z,16.73
2019-03-01T09:54:32.466Z,16.69
2019-03-01T09:57:02.194Z,16.67
2019-03-01T09:59:32.012Z,16.72
2019-03-01T10:02:02.070Z,16.61
2019-03-01T10:04:32.070Z,16.73
2019-03-01T10:07:01.936Z,16.89
2019-03-01T10:09:31.811Z,16.69
2019-03-01T10:12:01.497Z,16.74
2019-03-01T10:14:31.292Z,16.92
2019-03-01T10:17:01.253Z,16.88
2019-03-01T10:19:30.930Z,16.74
2019-03-01T10:22:00.745Z,16.89
2019-03-01T10:24:30.572Z,16.93
2019-03-01T10:27:00.474Z,17.01
2019-03-01T10:29:30.443Z,16.70
2019-03-01T10:32:00.426Z,17.11
2019-03-01T10:34:30.209Z,16.88
2019-03-01T10:37:00.131Z,16.83
2019-03-01T10:39:29.978Z,17.12
2019-03-01T10:41:59.649Z,17.23
2019-03-01T10:44:29.479Z,17.28
2019-03-01T10:46:59.646Z,17.30
2019-03-01T10:49:29.519Z,17.47
2019-03-01T10:51:59.428Z,17.10
2019-03-01T10:54:29.413Z,17.24
2019-03-01T10:56:59.259Z,17.03
2019-03-01T10:59:30.569Z,17.11
2019-03-01T11:02:00.429Z,17.28
2019-03-01T11:04:30.187Z,17.67
2019-03-01T11:07:00.040Z,17.45
2019-03-01T11:09:29.916Z,17.64
2019-03-01T11:11:59.777Z,17.51
2019-03-01T11:14:29.746Z,17.70
2019-03-01T11:16:59.620Z,17.99
2019-03-01T11:19:29.540Z,17.62
2019-03-01T11:21:59.416Z,17.89
2019-03-01T11:24:29.251Z,17.91
2019-03-01T11:26:59.068Z,17.91
2019-03-01T11:29:29.046Z,17.81
2019-03-01T11:31:58.964Z,17.87
2019-03-01T11:34:28.827Z,18.08
2019-03-01T11:36:58.675Z,18.12
2019-03-01T11:39:28.465Z,18.06
2019-03-01T11:41:58.381Z,18.13
2019-03-01T11:44:28.672Z,18.08
2019-03-01T11:46:58.523Z,18.15
2019-03-01T11:49:28.342Z,17.86
2019-03-01T11:51:58.364Z,18.14
2019-03-01T11:54:28.272Z,17.99
2019-03-01T11:56:58.208Z,17.83
2019-03-01T11:59:29.638Z,18.04
2019-03-01T12:01:59.439Z,17.98
2019-03-01T12:04:30.519Z,18.10
2019-03-01T12:07:00.391Z,17.93
2019-03-01T12:09:30.307Z,18.00
2019-03-01T12:12:01.797Z,18.27
2019-03-01T12:14:31.445Z,18.18
2019-03-01T12:17:01.269Z,18.44
2019-03-01T12:19:31.101Z,18.32
2019-03-01T12:22:01.103Z,18.26
2019-03-01T12:24:30.848Z,18.57
2019-03-01T12:27:00.966Z,18.27
2019-03-01T12:29:30.767Z,18.35
2019-03-01T12:32:00.708Z,18.41
2019-03-01T12:34:30.565Z,18.52
2019-03-01T12:37:00.419Z,18.45
2019-03-01T12:39:30.232Z,18.32
2019-03-01T12:42:01.316Z,18.48
2019-03-01T12:44:31.201Z,18.16
2019-03-01T12:47:01.103Z,18.33
2019-03-01T12:49:31.073Z,18.41
2019-03-01T12:52:00.955Z,18.53
2019-03-01T12:54:30.862Z,18.46
2019-03-01T12:57:01.923Z,18.50
2019-03-01T12:59:31.857Z,18.31
2019-03-01T13:02:01.830Z,18.40
2019-03-01T13:04:31.651Z,18.32
2019-03-01T13:07:01.587Z,18.27
2019-03-01T13:09:31.542Z,18.28
2019-03-01T13:12:01.402Z,18.39
2019-03-01T13:14:31.232Z,18.38
2019-03-01T13:17:01.740Z,18.56
2019-03-01T13:19:32.493Z,18.63
2019-03-01T13:22:02.394Z,18.45
2019-03-01T13:24:32.461Z,18.22
2019-03-01T13:27:02.226Z,18.36
2019-03-01T13:29:33.322Z,18.48
2019-03-01T13:32:05.263Z,18.45
2019-03-01T13:34:35.052Z,18.61
2019-03-01T13:37:04.966Z,18.47
2019-03-01T13:39:34.916Z,18.65
2019-03-01T13:42:04.811Z,18.39
2019-03-01T13:44:36.071Z,18.38
2019-03-01T13:47:08.727Z,18.54
2019-03-01T13:49:37.871Z,18.95
2019-03-01T13:52:07.903Z,19.07
2019-03-01T13:54:37.683Z,19.10
2019-03-01T13:57:08.317Z,18.92
2019-03-01T13:59:40.384Z,19.05
2019-03-01T14:02:10.106Z,19.15
2019-03-01T14:04:41.186Z,19.03
2019-03-01T14:07:11.329Z,19.04
2019-03-01T14:09:41.692Z,19.25
2019-03-01T14:12:11.396Z,19.09
2019-03-01T14:14:41.462Z,18.94
2019-03-01T14:17:11.107Z,19.11
2019-03-01T14:19:42.301Z,19.11
2019-03-01T14:22:13.998Z,19.28
2019-03-01T14:24:43.877Z,19.12
2019-03-01T14:27:13.868Z,19.03
2019-03-01T14:29:43.675Z,19.09
2019-03-01T14:32:20.727Z,19.02
2019-03-01T14:34:48.663Z,19.12
2019-03-01T14:37:19.287Z,19.10
2019-03-01T14:39:49.356Z,19.02
2019-03-01T14:42:19.239Z,18.84
2019-03-01T14:44:49.040Z,18.94
2019-03-01T14:47:19.743Z,18.89
2019-03-01T14:49:49.571Z,18.95
2019-03-01T14:52:21.282Z,18.81
2019-03-01T14:54:51.317Z,18.82
2019-03-01T14:57:34.555Z,18.69
2019-03-01T15:00:33.769Z,18.58
2019-03-01T15:03:28.012Z,18.55
2019-03-01T15:05:57.873Z,18.54
2019-03-01T15:08:27.708Z,18.54
2019-03-01T15:10:58.359Z,18.57
2019-03-01T15:13:31.394Z,18.42
2019-03-01T15:16:01.115Z,18.43
2019-03-01T15:18:32.247Z,18.32
2019-03-01T15:21:02.918Z,18.40
2019-03-01T15:23:32.747Z,18.32
2019-03-01T15:26:03.853Z,18.29
2019-03-01T15:28:35.756Z,18.13
2019-03-01T15:31:05.598Z,18.06
2019-03-01T15:33:35.364Z,17.96
2019-03-01T15:36:05.273Z,17.81
2019-03-01T15:38:35.230Z,17.55
2019-03-01T15:41:06.612Z,17.45
2019-03-01T15:43:36.380Z,17.27
2019-03-01T15:46:06.279Z,17.28
2019-03-01T15:48:38.315Z,17.26
2019-03-01T15:51:07.988Z,17.07
2019-03-01T15:53:37.750Z,17.15
2019-03-01T15:56:07.950Z,17.14
2019-03-01T15:58:37.904Z,16.90
2019-03-01T16:01:12.001Z,16.60
2019-03-01T16:03:42.270Z,16.32
2019-03-01T16:06:17.269Z,16.27
2019-03-01T16:08:47.583Z,16.43
2019-03-01T16:11:16.503Z,16.64
2019-03-01T16:13:49.037Z,16.82
2019-03-01T16:16:17.773Z,16.79
2019-03-01T16:18:47.681Z,16.86
2019-03-01T16:21:17.561Z,16.60
2019-03-01T16:23:47.410Z,16.45
2019-03-01T16:26:17.405Z,16.26
2019-03-01T16:28:47.163Z,15.95
2019-03-01T16:31:18.315Z,15.88
2019-03-01T16:33:48.240Z,15.37
2019-03-01T16:36:26.471Z,15.03
2019-03-01T16:38:55.129Z,15.06
2019-03-01T16:41:24.915Z,14.86
2019-03-01T16:43:54.732Z,14.16
2019-03-01T16:46:24.695Z,13.82
2019-03-01T16:48:54.569Z,13.50
2019-03-01T16:51:24.481Z,13.13
2019-03-01T16:53:54.456Z,13.00
2019-03-01T16:56:26.464Z,12.65
2019-03-01T16:58:55.975Z,12.56
2019-03-01T17:01:26.034Z,12.26
2019-03-01T17:03:57.613Z,11.60
2019-03-01T17:06:27.562Z,11.11
2019-03-01T17:08:57.290Z,10.69
2019-03-01T17:11:27.048Z,10.34
2019-03-01T17:13:59.569Z,10.32
2019-03-01T17:16:28.271Z,10.31
2019-03-01T17:18:58.109Z,10.07
2019-03-01T17:21:27.912Z,10.21
2019-03-01T17:23:57.694Z,10.06
2019-03-01T17:26:29.883Z,10.06
2019-03-01T17:28:59.689Z,10.18
2019-03-01T17:31:30.737Z,10.01
2019-03-01T17:34:00.640Z,10.09
2019-03-01T17:36:30.387Z,9.97
2019-03-01T17:39:00.154Z,9.85
2019-03-01T17:41:29.877Z,9.71
2019-03-01T17:44:01.016Z,9.58
2019-03-01T17:46:32.973Z,9.62
2019-03-01T17:49:02.186Z,9.58
2019-03-01T17:51:33.240Z,9.68
2019-03-01T17:54:03.047Z,9.77
2019-03-01T17:56:32.952Z,9.86
2019-03-01T17:59:04.303Z,9.87
2019-03-01T18:01:35.547Z,9.91
2019-03-01T18:04:05.784Z,9.91
2019-03-01T18:06:35.763Z,10.21
2019-03-01T18:09:06.554Z,10.20
2019-03-01T18:11:36.519Z,10.31
2019-03-01T18:14:06.261Z,10.67
2019-03-01T18:16:36.291Z,10.75
2019-03-01T18:19:06.028Z,10.89
2019-03-01T18:21:35.977Z,10.98
2019-03-01T18:24:06.235Z,11.14
2019-03-01T18:26:36.351Z,11.19
2019-03-01T18:29:08.534Z,11.01
2019-03-01T18:31:38.343Z,11.24
2019-03-01T18:34:08.058Z,11.20
2019-03-01T18:36:38.023Z,10.98
2019-03-01T18:39:12.303Z,11.35
2019-03-01T18:41:42.100Z,11.46
2019-03-01T18:44:11.922Z,11.70
2019-03-01T18:46:41.672Z,11.85
2019-03-01T18:49:11.470Z,11.90
2019-03-01T18:51:43.285Z,11.79
2019-03-01T18:54:14.363Z,11.80
2019-03-01T18:56:44.431Z,11.63
2019-03-01T18:59:14.299Z,11.59
2019-03-01T19:01:46.414Z,11.28
2019-03-01T19:04:16.698Z,11.19
2019-03-01T19:06:48.410Z,11.04
2019-03-01T19:09:18.693Z,10.86
2019-03-01T19:11:48.593Z,11.02
2019-03-01T19:14:18.694Z,11.33
2019-03-01T19:16:48.416Z,11.36
2019-03-01T19:19:18.274Z,11.60
2019-03-01T19:21:49.560Z,11.72
2019-03-01T19:24:19.492Z,11.84
2019-03-01T19:26:49.479Z,11.63
2019-03-01T19:29:19.316Z,11.42
2019-03-01T19:31:49.244Z,11.30
2019-03-01T19:34:20.335Z,11.12
2019-03-01T19:36:50.097Z,11.30
2019-03-01T19:39:23.439Z,11.49
2019-03-01T19:41:54.542Z,11.89
2019-03-01T19:44:25.633Z,11.95
2019-03-01T19:46:56.553Z,12.01
2019-03-01T19:49:26.424Z,11.83
2019-03-01T19:51:56.170Z,11.65
2019-03-01T19:54:26.404Z,11.64
2019-03-01T19:56:57.724Z,11.55
2019-03-01T19:59:27.647Z,11.45
2019-03-01T20:01:57.504Z,11.39
2019-03-01T20:04:27.378Z,11.38
2019-03-01T20:06:57.720Z,11.28
2019-03-01T20:09:28.891Z,11.09
2019-03-01T20:11:59.302Z,10.97
2019-03-01T20:14:33.635Z,11.00
2019-03-01T20:17:02.041Z,11.07
2019-03-01T20:19:31.808Z,10.92
2019-03-01T20:22:01.620Z,10.88
2019-03-01T20:24:31.527Z,10.86
2019-03-01T20:27:03.077Z,11.06
2019-03-01T20:29:32.887Z,11.25
2019-03-01T20:32:04.394Z,11.35
2019-03-01T20:34:34.773Z,11.39
2019-03-01T20:37:06.981Z,11.50
2019-03-01T20:39:38.012Z,11.46
2019-03-01T20:42:07.419Z,11.42
2019-03-01T20:44:37.107Z,11.40
2019-03-01T20:47:08.168Z,11.33
2019-03-01T20:49:39.440Z,11.23
2019-03-01T20:52:09.841Z,11.05
2019-03-01T20:54:39.798Z,10.73
2019-03-01T20:57:09.653Z,10.58
2019-03-01T20:59:39.403Z,10.53
2019-03-01T21:02:09.583Z,10.43
2019-03-01T21:04:53.031Z,10.53
2019-03-01T21:07:15.696Z,10.57
2019-03-01T21:09:45.095Z,10.69
2019-03-01T21:12:15.104Z,10.72
2019-03-01T21:14:44.940Z,10.74
2019-03-01T21:17:16.817Z,10.86
2019-03-01T21:19:46.607Z,11.01
2019-03-01T21:22:16.504Z,11.03
2019-03-01T21:24:46.365Z,11.00
2019-03-01T21:27:16.121Z,10.89
2019-03-01T21:29:47.612Z,10.76
2019-03-01T21:32:17.819Z,10.70
2019-03-01T21:34:47.923Z,10.73
2019-03-01T21:37:19.120Z,10.79
2019-03-01T21:39:48.812Z,10.75
2019-03-01T21:42:20.304Z,10.61
2019-03-01T21:44:50.470Z,10.60
2019-03-01T21:47:20.399Z,10.60
2019-03-01T21:49:50.240Z,10.51
2019-03-01T21:52:20.010Z,10.34
2019-03-01T21:54:52.040Z,10.21
2019-03-01T21:57:22.742Z,10.25
2019-03-01T21:59:53.752Z,10.25
2019-03-01T22:02:23.466Z,10.09
2019-03-01T22:04:53.658Z,10.46
2019-03-01T22:07:23.306Z,10.60
2019-03-01T22:09:53.233Z,10.67
2019-03-01T22:12:24.681Z,10.68
2019-03-01T22:14:54.502Z,10.54
2019-03-01T22:17:24.409Z,10.31
2019-03-01T22:19:54.205Z,10.16
2019-03-01T22:22:24.017Z,10.05
2019-03-01T22:24:53.872Z,10.09
2019-03-01T22:27:25.306Z,10.16
2019-03-01T22:29:55.207Z,10.77
2019-03-01T22:32:25.075Z,10.77
2019-03-01T22:34:54.932Z,10.77
2019-03-01T22:37:28.453Z,10.86
2019-03-01T22:39:56.494Z,10.88
2019-03-01T22:42:26.339Z,10.92
2019-03-01T22:44:56.320Z,11.21
2019-03-01T22:47:26.226Z,11.07
2019-03-01T22:49:56.086Z,10.73
2019-03-01T22:52:26.723Z,10.45
2019-03-01T22:55:01.323Z,10.46
2019-03-01T22:57:29.005Z,10.20
2019-03-01T22:59:58.900Z,10.07
2019-03-01T23:02:29.924Z,10.23
2019-03-01T23:05:00.443Z,10.27
2019-03-01T23:07:31.258Z,10.24
2019-03-01T23:10:01.278Z,10.04
2019-03-01T23:12:31.156Z,10.36
2019-03-01T23:15:02.805Z,10.26
2019-03-01T23:17:32.363Z,10.10
2019-03-01T23:20:02.249Z,10.21
2019-03-01T23:22:32.061Z,10.32
2019-03-01T23:25:02.134Z,10.29
2019-03-01T23:27:32.724Z,10.24
2019-03-01T23:30:02.419Z,10.21
2019-03-01T23:32:32.157Z,10.23
2019-03-01T23:35:02.011Z,10.28
2019-03-01T23:37:31.894Z,10.31
2019-03-01T23:40:02.409Z,10.31
2019-03-01T23:42:32.250Z,10.41
2019-03-01T23:45:02.182Z,10.35
2019-03-01T23:47:34.724Z,10.28
2019-03-01T23:50:03.826Z,9.93
2019-03-01T23:52:33.660Z,9.87
2019-03-01T23:55:03.521Z,9.70
2019-03-01T23:57:33.764Z,9.44
